Time;durP1;ratioP1;P1;durP2;ratioP2;P2;SDS_P1;SDS_P2;PMS_P1;PMS_P2;Temp;Humidity;BMP_temperature;BMP_pressure;BME280_temperature;BME280_humidity;BME280_pressure;Samples;Min_cycle;Max_cycle;Signal;HPM_P1;HPM_P2
2023/07/07 00:01:51;;;;;;;4.75;1.80;;;14.70;99.90;;;;;;6335262;22;20010;-85
2023/07/07 00:04:19;;;;;;;4.85;1.95;;;14.70;99.90;;;;;;6334736;22;20010;-85
2023/07/07 00:06:45;;;;;;;3.50;1.95;;;14.70;99.90;;;;;;6307561;22;20313;-85
2023/07/07 00:09:11;;;;;;;4.28;1.92;;;14.70;99.90;;;;;;6307561;22;20021;-85
2023/07/07 00:11:36;;;;;;;4.82;2.33;;;14.70;99.90;;;;;;6281098;22;20021;-84
2023/07/07 00:14:03;;;;;;;4.18;2.33;;;14.70;99.90;;;;;;6334297;22;20049;-84
2023/07/07 00:16:29;;;;;;;3.80;1.83;;;14.80;99.90;;;;;;6335761;22;20046;-85
2023/07/07 00:18:56;;;;;;;5.18;1.98;;;14.70;99.90;;;;;;6306862;22;20445;-85
2023/07/07 00:21:24;;;;;;;4.07;2.33;;;14.70;99.90;;;;;;6306195;22;20511;-84
2023/07/07 00:23:57;;;;;;;4.07;2.30;;;14.70;99.90;;;;;;6305067;22;20241;-85
2023/07/07 00:26:24;;;;;;;5.57;2.22;;;14.70;99.90;;;;;;6306548;22;20011;-84
2023/07/07 00:28:51;;;;;;;5.78;2.70;;;14.70;99.90;;;;;;6282893;22;20015;-84
2023/07/07 00:31:20;;;;;;;7.00;2.65;;;14.60;99.90;;;;;;6334540;22;20018;-84
2023/07/07 00:33:49;;;;;;;5.63;2.60;;;14.60;99.90;;;;;;6280372;22;20067;-84
2023/07/07 00:36:15;;;;;;;4.72;2.15;;;14.50;99.90;;;;;;6333485;22;20018;-84
2023/07/07 00:38:44;;;;;;;5.18;2.33;;;14.50;99.90;;;;;;6304924;22;20010;-85
2023/07/07 00:41:10;;;;;;;4.68;2.58;;;14.40;99.90;;;;;;6304455;22;20010;-84
2023/07/07 00:43:39;;;;;;;4.68;2.20;;;14.40;99.90;;;;;;6332810;22;20015;-85
2023/07/07 00:46:05;;;;;;;4.28;2.40;;;14.40;99.90;;;;;;6305551;22;20441;-84
2023/07/07 00:48:40;;;;;;;4.55;2.50;;;14.30;99.90;;;;;;6332398;22;20018;-85
2023/07/07 00:51:15;;;;;;;5.30;2.38;;;14.20;99.90;;;;;;6304527;22;20014;-85
2023/07/07 00:53:45;;;;;;;3.80;1.65;;;14.30;99.90;;;;;;6290020;22;20054;-84
2023/07/07 00:56:16;;;;;;;5.47;2.45;;;14.30;99.90;;;;;;6275149;22;20003;-84
2023/07/07 00:58:42;;;;;;;4.68;2.00;;;14.30;99.90;;;;;;6276333;22;20022;-85
2023/07/07 01:01:14;;;;;;;4.20;2.00;;;14.30;99.90;;;;;;6303182;22;20007;-85
2023/07/07 01:03:49;;;;;;;4.18;2.20;;;14.30;99.90;;;;;;6302649;22;20015;-84
2023/07/07 01:06:23;;;;;;;3.70;1.83;;;14.30;99.90;;;;;;6250110;22;20019;-84
2023/07/07 01:08:56;;;;;;;5.30;2.20;;;14.30;99.90;;;;;;6275624;22;20075;-84
2023/07/07 01:11:22;;;;;;;4.13;2.10;;;14.20;99.90;;;;;;6249697;22;20011;-84
2023/07/07 01:13:49;;;;;;;4.25;2.10;;;14.20;99.90;;;;;;6249467;22;20030;-84
2023/07/07 01:16:32;;;;;;;4.55;1.80;;;14.10;99.90;;;;;;6274825;22;20369;-84
2023/07/07 01:19:40;;;;;;;3.30;1.80;;;14.10;99.90;;;;;;6249696;22;20101;-84
2023/07/07 01:22:32;;;;;;;5.95;2.08;;;14.10;99.90;;;;;;6248410;22;20332;-84
2023/07/07 01:25:19;;;;;;;4.28;2.00;;;14.10;99.90;;;;;;6216596;22;20316;-84
2023/07/07 01:28:12;;;;;;;5.18;2.63;;;14.10;99.90;;;;;;6275299;22;20011;-84
2023/07/07 01:30:59;;;;;;;3.90;1.88;;;14.00;99.90;;;;;;6249337;22;20065;-85
2023/07/07 01:33:38;;;;;;;4.88;1.88;;;14.20;99.90;;;;;;6274234;22;20034;-85
2023/07/07 01:36:15;;;;;;;3.80;2.00;;;13.40;99.90;;;;;;6275765;22;20015;-85
2023/07/07 01:38:48;;;;;;;4.80;1.58;;;13.90;99.90;;;;;;6273438;22;20148;-85
2023/07/07 01:41:34;;;;;;;5.00;2.15;;;13.90;99.90;;;;;;6248172;22;20064;-85
2023/07/07 01:44:21;;;;;;;6.13;2.20;;;13.80;99.90;;;;;;6273945;22;20015;-85
2023/07/07 01:47:26;;;;;;;4.45;2.10;;;13.80;99.90;;;;;;6275794;22;20346;-84
2023/07/07 01:50:03;;;;;;;3.90;2.20;;;13.80;99.90;;;;;;6298814;22;20442;-85
2023/07/07 01:52:47;;;;;;;5.47;2.38;;;13.80;99.90;;;;;;6247992;22;20429;-84
2023/07/07 01:55:29;;;;;;;4.55;1.90;;;13.70;99.90;;;;;;6240362;22;20024;-85
2023/07/07 01:58:02;;;;;;;4.75;2.33;;;13.70;99.90;;;;;;6271944;22;20007;-85
2023/07/07 02:00:30;;;;;;;3.90;1.95;;;13.70;99.90;;;;;;6271279;22;20430;-85
2023/07/07 02:02:58;;;;;;;4.43;2.47;;;13.70;99.90;;;;;;6219219;22;20457;-85
2023/07/07 02:05:24;;;;;;;4.10;2.10;;;13.60;99.90;;;;;;6273245;22;20062;-85
2023/07/07 02:07:50;;;;;;;5.43;2.38;;;13.60;99.90;;;;;;6272579;22;20047;-84
2023/07/07 02:10:16;;;;;;;3.97;1.90;;;13.60;99.90;;;;;;6242845;22;20022;-84
2023/07/07 02:12:42;;;;;;;3.97;2.10;;;13.60;99.90;;;;;;6244662;22;20083;-84
2023/07/07 02:15:08;;;;;;;7.78;2.50;;;13.60;99.90;;;;;;6271524;22;20015;-85
2023/07/07 02:17:34;;;;;;;6.80;3.58;;;13.60;99.90;;;;;;6272922;22;20008;-84
2023/07/07 02:19:59;;;;;;;6.60;3.25;;;13.60;99.90;;;;;;6270567;22;20362;-85
2023/07/07 02:22:25;;;;;;;4.75;2.33;;;13.60;99.90;;;;;;6243583;22;20016;-85
2023/07/07 02:24:51;;;;;;;5.20;2.55;;;13.60;99.90;;;;;;6272237;22;20011;-85
2023/07/07 02:27:17;;;;;;;8.57;3.97;;;13.60;99.90;;;;;;6244209;22;20022;-85
2023/07/07 02:29:42;;;;;;;9.48;5.35;;;13.60;99.90;;;;;;6272856;22;20461;-84
2023/07/07 02:32:11;;;;;;;5.15;2.53;;;13.60;99.90;;;;;;6243898;22;20067;-85
2023/07/07 02:34:40;;;;;;;7.57;4.53;;;13.50;99.90;;;;;;6272770;22;20301;-84
2023/07/07 02:37:12;;;;;;;5.72;3.22;;;13.50;99.90;;;;;;6220525;22;20011;-85
2023/07/07 02:39:39;;;;;;;14.30;6.90;;;13.50;99.90;;;;;;6245777;22;20083;-84
2023/07/07 02:42:04;;;;;;;10.20;5.95;;;13.50;99.90;;;;;;6221527;22;20094;-84
2023/07/07 02:44:30;;;;;;;11.80;7.28;;;13.50;99.90;;;;;;6248131;22;20093;-85
2023/07/07 02:46:56;;;;;;;9.18;5.97;;;13.50;99.90;;;;;;6246583;22;20019;-84
2023/07/07 02:49:22;;;;;;;10.38;6.40;;;13.50;99.90;;;;;;6246371;22;20020;-84
2023/07/07 02:51:47;;;;;;;13.55;8.18;;;13.50;99.90;;;;;;6247776;22;20043;-84
2023/07/07 02:54:13;;;;;;;15.25;8.10;;;13.50;99.90;;;;;;6268329;22;20015;-85
2023/07/07 02:56:39;;;;;;;15.75;7.85;;;13.50;99.90;;;;;;6278601;22;20022;-85
2023/07/07 02:59:05;;;;;;;13.40;8.15;;;13.70;99.90;;;;;;6252219;22;20465;-85
2023/07/07 03:01:32;;;;;;;14.23;9.13;;;13.50;99.90;;;;;;6306116;22;20042;-85
2023/07/07 03:03:58;;;;;;;16.05;10.07;;;13.50;99.90;;;;;;6304915;22;20059;-85
2023/07/07 03:06:24;;;;;;;12.02;8.63;;;13.40;99.90;;;;;;6304157;22;20330;-85
2023/07/07 03:08:51;;;;;;;13.43;8.52;;;13.40;99.90;;;;;;6303315;22;20073;-85
2023/07/07 03:11:20;;;;;;;15.75;9.02;;;13.40;99.90;;;;;;6276161;22;20019;-85
2023/07/07 03:13:49;;;;;;;17.48;11.07;;;13.40;99.90;;;;;;6277813;22;20022;-85
2023/07/07 03:16:21;;;;;;;17.10;11.38;;;13.40;99.90;;;;;;6277029;22;20444;-86
2023/07/07 03:19:07;;;;;;;17.42;12.35;;;13.40;99.90;;;;;;6251552;22;20015;-85
2023/07/07 03:21:33;;;;;;;18.67;11.10;;;13.40;99.90;;;;;;6251933;22;20450;-84
2023/07/07 03:23:59;;;;;;;10.48;6.63;;;13.40;99.90;;;;;;6277995;22;20018;-84
2023/07/07 03:26:27;;;;;;;18.48;11.45;;;13.40;99.90;;;;;;6252635;22;20023;-85
2023/07/07 03:28:54;;;;;;;19.17;9.98;;;13.40;99.90;;;;;;6275723;22;20011;-85
2023/07/07 03:31:31;;;;;;;19.25;13.00;;;13.40;99.90;;;;;;6277329;22;20023;-85
2023/07/07 03:34:04;;;;;;;19.85;13.02;;;13.30;99.90;;;;;;6251591;22;20019;-85
2023/07/07 03:36:31;;;;;;;19.80;13.18;;;13.40;99.90;;;;;;6252415;22;20019;-85
2023/07/07 03:38:58;;;;;;;20.60;13.10;;;13.40;99.90;;;;;;6277033;22;20015;-85
2023/07/07 03:41:27;;;;;;;19.17;12.00;;;13.40;99.90;;;;;;6276297;22;20068;-85
2023/07/07 03:43:54;;;;;;;19.17;13.68;;;13.40;99.90;;;;;;6275691;22;20464;-85
2023/07/07 03:46:23;;;;;;;19.33;12.88;;;13.40;99.90;;;;;;6305524;22;20008;-85
2023/07/07 03:48:50;;;;;;;23.20;13.27;;;13.40;99.90;;;;;;6305556;22;20023;-85
2023/07/07 03:51:17;;;;;;;21.27;11.93;;;13.40;99.90;;;;;;6305427;22;20011;-86
2023/07/07 03:53:43;;;;;;;16.55;11.85;;;13.40;99.90;;;;;;6318798;22;20030;-85
2023/07/07 03:56:10;;;;;;;21.83;13.38;;;13.40;99.90;;;;;;6308963;22;20015;-85
2023/07/07 03:58:36;;;;;;;20.90;12.77;;;13.40;99.90;;;;;;6307944;22;20149;-85
2023/07/07 04:01:09;;;;;;;19.13;13.07;;;13.40;99.90;;;;;;6334167;22;20011;-85
2023/07/07 04:03:35;;;;;;;24.85;16.02;;;13.40;99.90;;;;;;6307357;22;20041;-84
2023/07/07 04:06:02;;;;;;;22.30;14.55;;;13.50;99.90;;;;;;6282784;22;20018;-85
2023/07/07 04:08:28;;;;;;;23.58;13.52;;;13.40;99.90;;;;;;6307220;22;20021;-85
2023/07/07 04:11:21;;;;;;;22.23;14.13;;;13.50;99.90;;;;;;6305158;22;20011;-86
2023/07/07 04:13:50;;;;;;;20.13;13.60;;;13.50;99.90;;;;;;6335763;22;20404;-85
2023/07/07 04:16:19;;;;;;;23.63;13.88;;;13.50;99.90;;;;;;6335910;22;20082;-85
2023/07/07 04:18:45;;;;;;;23.05;14.35;;;13.50;99.90;;;;;;6279274;22;20018;-86
2023/07/07 04:21:15;;;;;;;22.33;14.02;;;13.50;99.90;;;;;;6306917;22;20011;-85
2023/07/07 04:23:42;;;;;;;25.70;14.80;;;13.50;99.90;;;;;;6307200;22;20006;-86
2023/07/07 04:26:09;;;;;;;21.42;13.80;;;13.60;99.90;;;;;;6306711;22;20019;-86
2023/07/07 04:28:39;;;;;;;18.90;13.65;;;13.60;99.90;;;;;;6335188;22;20079;-86
2023/07/07 04:31:08;;;;;;;20.15;15.02;;;13.60;99.90;;;;;;6278276;22;20046;-86
2023/07/07 04:33:35;;;;;;;21.35;14.52;;;13.60;99.90;;;;;;6306516;22;20011;-86
2023/07/07 04:36:04;;;;;;;21.58;14.70;;;13.60;99.90;;;;;;6280614;22;20341;-86
2023/07/07 04:38:31;;;;;;;20.95;14.27;;;13.70;99.90;;;;;;6307174;22;20019;-86
2023/07/07 04:41:09;;;;;;;23.67;13.80;;;13.80;99.90;;;;;;6307429;22;20014;-85
2023/07/07 04:43:38;;;;;;;24.42;13.98;;;13.70;99.90;;;;;;6307125;22;20042;-86
2023/07/07 04:46:05;;;;;;;24.60;14.45;;;13.70;99.90;;;;;;6305580;22;20006;-85
2023/07/07 04:48:44;;;;;;;23.90;14.02;;;13.70;99.90;;;;;;6305810;22;20085;-87
2023/07/07 04:51:11;;;;;;;20.13;13.98;;;13.80;99.90;;;;;;6305263;22;20093;-85
2023/07/07 04:53:39;;;;;;;20.85;14.07;;;13.80;99.90;;;;;;6306321;22;20021;-85
2023/07/07 04:56:17;;;;;;;21.08;14.00;;;13.80;99.90;;;;;;6334002;22;20029;-84
2023/07/07 04:58:43;;;;;;;22.13;14.52;;;13.80;99.90;;;;;;6305803;22;20014;-84
2023/07/07 05:01:11;;;;;;;22.00;14.52;;;13.80;99.90;;;;;;6281112;22;20140;-84
2023/07/07 05:03:38;;;;;;;25.27;14.38;;;13.90;99.90;;;;;;6304602;22;20425;-84
2023/07/07 05:06:04;;;;;;;20.27;14.68;;;13.90;99.90;;;;;;6305851;22;20015;-84
2023/07/07 05:08:33;;;;;;;25.65;13.82;;;13.90;99.90;;;;;;6306941;22;20006;-85
2023/07/07 05:11:03;;;;;;;23.90;14.75;;;13.90;99.90;;;;;;6333925;22;20015;-86
2023/07/07 05:13:29;;;;;;;22.30;14.38;;;13.90;99.90;;;;;;6306033;22;20010;-86
2023/07/07 05:16:04;;;;;;;21.60;14.90;;;14.00;99.90;;;;;;6279985;22;20022;-85
2023/07/07 05:18:30;;;;;;;22.17;13.68;;;14.00;99.90;;;;;;6280032;22;20018;-86
2023/07/07 05:20:56;;;;;;;20.75;14.30;;;14.00;99.90;;;;;;6307245;22;20036;-85
2023/07/07 05:23:22;;;;;;;21.65;13.68;;;14.20;99.90;;;;;;6307603;22;20104;-85
2023/07/07 05:25:47;;;;;;;26.08;13.63;;;14.20;99.90;;;;;;6306456;22;20527;-86
2023/07/07 05:28:16;;;;;;;23.00;14.00;;;14.20;99.90;;;;;;6305917;22;20036;-85
2023/07/07 05:30:42;;;;;;;20.60;13.68;;;14.30;99.90;;;;;;6304166;22;20105;-87
2023/07/07 05:33:08;;;;;;;21.35;13.55;;;14.30;99.90;;;;;;6334254;22;20022;-91
2023/07/07 05:35:34;;;;;;;21.15;13.98;;;14.30;99.90;;;;;;6333332;22;20036;-87
2023/07/07 05:38:00;;;;;;;21.40;14.35;;;14.40;99.90;;;;;;6333909;22;20085;-86
2023/07/07 05:40:29;;;;;;;19.23;13.43;;;14.40;99.90;;;;;;6333321;22;20011;-87
2023/07/07 05:42:55;;;;;;;16.20;12.88;;;14.50;99.90;;;;;;6305141;22;20022;-86
2023/07/07 05:45:23;;;;;;;18.80;12.48;;;14.60;99.90;;;;;;6330983;22;20011;-86
2023/07/07 05:47:49;;;;;;;19.15;13.35;;;14.40;99.90;;;;;;6304918;22;20434;-86
2023/07/07 05:50:15;;;;;;;17.40;13.10;;;14.60;99.90;;;;;;6305063;22;20018;-86
2023/07/07 05:52:44;;;;;;;20.45;13.57;;;14.70;99.90;;;;;;6333677;22;20078;-85
2023/07/07 05:55:23;;;;;;;24.40;13.18;;;14.30;99.90;;;;;;6303881;22;20103;-90
2023/07/07 05:57:49;;;;;;;25.35;13.15;;;14.80;99.90;;;;;;6310142;22;20539;-88
2023/07/07 06:00:16;;;;;;;18.58;12.57;;;14.80;99.90;;;;;;6336596;22;20015;-89
2023/07/07 06:02:43;;;;;;;17.60;11.32;;;14.90;99.90;;;;;;6338166;22;20011;-91
2023/07/07 06:05:08;;;;;;;19.00;12.77;;;15.00;99.90;;;;;;6310970;22;20464;-91
2023/07/07 06:07:34;;;;;;;21.15;11.77;;;15.00;99.90;;;;;;6339917;22;20046;-92
2023/07/07 06:09:59;;;;;;;19.45;11.48;;;15.10;99.90;;;;;;6335972;22;20014;-90
2023/07/07 06:12:25;;;;;;;15.95;10.77;;;15.20;99.90;;;;;;6343737;22;20014;-95
2023/07/07 06:14:51;;;;;;;19.80;11.45;;;15.30;99.90;;;;;;6314158;22;20015;-88
2023/07/07 06:17:17;;;;;;;19.15;10.75;;;15.40;99.90;;;;;;6312021;22;20014;-89
2023/07/07 06:19:42;;;;;;;14.70;10.05;;;15.40;99.90;;;;;;6339782;22;20011;-88
2023/07/07 06:22:08;;;;;;;13.70;10.73;;;15.50;99.90;;;;;;6311633;22;20013;-89
2023/07/07 06:24:34;;;;;;;16.60;10.13;;;15.70;99.90;;;;;;6284650;22;20468;-86
2023/07/07 06:26:59;;;;;;;13.88;10.48;;;15.70;99.90;;;;;;6339096;22;20124;-88
2023/07/07 06:29:25;;;;;;;15.77;9.65;;;15.70;99.90;;;;;;6309728;22;20333;-85
2023/07/07 06:31:51;;;;;;;16.70;9.85;;;15.80;99.90;;;;;;6336561;22;20014;-88
2023/07/07 06:34:16;;;;;;;13.00;9.05;;;15.80;99.90;;;;;;6310674;22;20015;-87
2023/07/07 06:36:42;;;;;;;16.33;9.00;;;16.00;99.90;;;;;;6310227;22;20019;-88
2023/07/07 06:39:08;;;;;;;14.00;8.35;;;16.10;99.90;;;;;;6336584;22;20014;-88
2023/07/07 06:41:33;;;;;;;10.75;8.40;;;16.10;99.90;;;;;;6338201;22;20434;-89
2023/07/07 06:43:59;;;;;;;13.15;7.97;;;16.20;99.90;;;;;;6336420;22;20065;-87
2023/07/07 06:46:25;;;;;;;13.38;8.20;;;16.40;99.90;;;;;;6337146;22;20042;-88
2023/07/07 06:48:51;;;;;;;12.50;7.68;;;16.50;99.90;;;;;;6336026;22;20236;-87
2023/07/07 06:51:18;;;;;;;12.85;7.10;;;16.60;99.90;;;;;;6304293;22;20437;-86
2023/07/07 06:53:44;;;;;;;13.02;7.00;;;16.60;99.90;;;;;;6283089;22;20022;-86
2023/07/07 06:56:10;;;;;;;12.95;6.90;;;16.70;99.90;;;;;;6336795;22;20015;-86
2023/07/07 06:58:36;;;;;;;13.18;7.25;;;16.90;99.90;;;;;;6308272;22;20086;-87
2023/07/07 07:01:02;;;;;;;13.27;6.63;;;17.00;99.90;;;;;;6308025;22;20018;-86
2023/07/07 07:03:28;;;;;;;11.02;6.63;;;17.10;99.90;;;;;;6337165;22;20463;-86
2023/07/07 07:05:54;;;;;;;9.55;6.18;;;17.10;99.90;;;;;;6309359;22;20045;-86
2023/07/07 07:08:20;;;;;;;13.35;5.90;;;17.20;99.90;;;;;;6337771;22;20082;-86
2023/07/07 07:10:46;;;;;;;12.10;6.35;;;17.40;99.90;;;;;;6309804;22;20060;-86
2023/07/07 07:13:12;;;;;;;9.68;5.43;;;17.50;99.90;;;;;;6307799;22;20015;-87
2023/07/07 07:15:37;;;;;;;9.30;5.50;;;17.70;99.90;;;;;;6309571;22;20011;-86
2023/07/07 07:18:03;;;;;;;10.10;4.70;;;17.90;99.90;;;;;;6336983;22;20090;-87
2023/07/07 07:20:29;;;;;;;11.38;5.15;;;18.10;99.90;;;;;;6308653;22;20002;-87
2023/07/07 07:22:54;;;;;;;9.63;5.40;;;18.50;99.90;;;;;;6309457;22;20015;-87
2023/07/07 07:25:20;;;;;;;7.20;4.22;;;18.80;99.90;;;;;;6283413;22;20033;-87
2023/07/07 07:27:46;;;;;;;8.15;4.38;;;19.10;99.90;;;;;;6308210;22;20364;-87
2023/07/07 07:30:15;;;;;;;9.98;4.25;;;19.40;99.90;;;;;;6309386;22;20038;-87
2023/07/07 07:32:41;;;;;;;11.10;4.68;;;19.70;99.90;;;;;;6337711;22;20018;-87
2023/07/07 07:35:09;;;;;;;7.80;3.95;;;20.10;99.90;;;;;;6282826;22;20015;-87
2023/07/07 07:37:34;;;;;;;9.13;3.97;;;20.40;99.90;;;;;;6337292;22;20061;-87
2023/07/07 07:40:00;;;;;;;7.63;4.00;;;20.70;99.90;;;;;;6307881;22;20015;-87
2023/07/07 07:42:26;;;;;;;9.77;3.97;;;21.00;99.90;;;;;;6308855;22;20022;-87
2023/07/07 07:44:51;;;;;;;7.30;3.67;;;21.20;99.90;;;;;;6335781;22;20485;-88
2023/07/07 07:47:19;;;;;;;6.97;3.10;;;21.50;99.90;;;;;;6335141;22;20387;-87
2023/07/07 07:49:45;;;;;;;6.32;3.22;;;21.60;99.90;;;;;;6307419;22;20366;-87
2023/07/07 07:52:11;;;;;;;8.60;3.55;;;21.70;99.90;;;;;;6307689;22;20019;-92
2023/07/07 07:54:38;;;;;;;9.07;2.97;;;21.80;99.90;;;;;;6311347;22;20021;-93
2023/07/07 07:57:04;;;;;;;6.60;3.50;;;21.90;99.90;;;;;;6335357;22;20044;-87
2023/07/07 07:59:31;;;;;;;10.68;3.80;;;22.00;99.90;;;;;;6308491;22;20019;-88
2023/07/07 08:01:57;;;;;;;7.70;2.95;;;22.20;99.90;;;;;;6307776;22;20083;-88
2023/07/07 08:04:22;;;;;;;7.20;2.88;;;22.30;99.90;;;;;;6308426;22;20011;-87
2023/07/07 08:06:51;;;;;;;6.32;2.70;;;22.40;99.90;;;;;;6308369;22;20015;-87
2023/07/07 08:09:18;;;;;;;6.30;2.60;;;22.50;99.90;;;;;;6307945;22;20051;-88
2023/07/07 08:11:43;;;;;;;7.70;2.60;;;22.60;99.90;;;;;;6335353;22;20091;-88
2023/07/07 08:14:11;;;;;;;7.05;2.80;;;22.70;99.90;;;;;;6307901;22;20054;-88
2023/07/07 08:16:37;;;;;;;7.28;3.50;;;22.70;99.90;;;;;;6337993;22;20015;-87
2023/07/07 08:19:03;;;;;;;5.30;2.42;;;22.80;99.90;;;;;;6336013;22;20007;-87
2023/07/07 08:21:28;;;;;;;6.68;2.55;;;22.90;99.90;;;;;;6307366;22;20038;-87
2023/07/07 08:23:54;;;;;;;7.07;2.50;;;22.90;99.90;;;;;;6306400;22;20311;-87
2023/07/07 08:26:20;;;;;;;6.22;2.88;;;22.90;99.90;;;;;;6335131;22;20011;-89
2023/07/07 08:28:45;;;;;;;6.13;2.03;;;23.00;99.90;;;;;;6306497;22;20015;-88
2023/07/07 08:31:11;;;;;;;6.60;2.60;;;23.10;99.90;;;;;;6333069;22;20090;-88
2023/07/07 08:33:37;;;;;;;7.20;2.20;;;23.10;99.90;;;;;;6305918;22;20026;-88
2023/07/07 08:36:03;;;;;;;6.43;2.40;;;23.10;99.90;;;;;;6306344;22;20026;-88
2023/07/07 08:38:29;;;;;;;5.05;1.90;;;23.20;99.90;;;;;;6306641;22;20014;-88
2023/07/07 08:40:56;;;;;;;5.68;2.08;;;23.20;99.90;;;;;;6280334;22;20010;-88
2023/07/07 08:43:24;;;;;;;8.55;2.35;;;23.20;98.10;;;;;;6309508;22;20021;-89
2023/07/07 08:46:11;;;;;;;5.72;2.03;;;23.20;99.00;;;;;;6309106;22;20065;-89
2023/07/07 08:48:56;;;;;;;3.95;1.67;;;23.20;96.40;;;;;;6281961;22;20010;-88
2023/07/07 08:51:32;;;;;;;5.80;1.80;;;23.20;96.80;;;;;;6336623;22;20102;-88
2023/07/07 08:54:21;;;;;;;7.07;2.00;;;23.30;97.30;;;;;;6287084;22;20011;-90
2023/07/07 08:57:04;;;;;;;4.95;1.67;;;23.30;96.90;;;;;;6277931;22;20011;-89
2023/07/07 08:59:48;;;;;;;4.82;1.90;;;23.40;97.50;;;;;;6305181;22;20053;-89
2023/07/07 09:02:51;;;;;;;9.73;2.47;;;23.50;96.60;;;;;;6305098;22;20019;-90
2023/07/07 09:05:31;;;;;;;6.65;2.10;;;23.60;94.30;;;;;;6251467;22;20341;-90
2023/07/07 09:08:18;;;;;;;7.00;1.90;;;23.60;94.80;;;;;;6277028;22;20019;-89
2023/07/07 09:11:19;;;;;;;5.03;1.67;;;23.70;94.80;;;;;;6276756;22;20490;-90
2023/07/07 09:13:49;;;;;;;4.80;1.75;;;23.80;95.80;;;;;;6277945;22;20088;-90
2023/07/07 09:16:23;;;;;;;4.70;1.70;;;23.90;95.60;;;;;;6277092;22;20011;-90
2023/07/07 09:18:57;;;;;;;4.20;1.80;;;24.00;95.80;;;;;;6276663;22;20018;-90
2023/07/07 09:21:32;;;;;;;4.55;2.08;;;24.10;95.80;;;;;;6303909;22;20019;-90
2023/07/07 09:24:05;;;;;;;5.25;2.13;;;24.10;95.60;;;;;;6303708;22;20016;-90
2023/07/07 09:26:34;;;;;;;6.03;1.90;;;24.20;95.30;;;;;;6275730;22;20007;-90
2023/07/07 09:29:03;;;;;;;5.13;1.88;;;24.30;95.00;;;;;;6277871;22;20019;-89
2023/07/07 09:31:37;;;;;;;4.88;2.08;;;24.40;94.70;;;;;;6305162;22;20064;-90
2023/07/07 09:34:04;;;;;;;4.95;1.75;;;24.40;94.40;;;;;;6276742;22;20066;-90
2023/07/07 09:36:50;;;;;;;7.15;2.20;;;24.40;95.10;;;;;;6277321;22;20056;-89
2023/07/07 09:39:28;;;;;;;5.45;2.10;;;24.50;95.50;;;;;;6250675;22;20033;-90
2023/07/07 09:42:10;;;;;;;5.78;2.65;;;24.60;95.30;;;;;;6276726;22;20019;-91
2023/07/07 09:45:00;;;;;;;4.72;1.90;;;24.60;94.30;;;;;;6278592;22;20071;-87
2023/07/07 09:47:26;;;;;;;4.57;1.98;;;24.60;94.00;;;;;;6251112;22;20011;-88
2023/07/07 09:50:11;;;;;;;5.65;2.35;;;24.70;94.30;;;;;;6276960;22;20515;-88
2023/07/07 09:52:43;;;;;;;5.15;2.05;;;24.80;95.10;;;;;;6278442;22;20015;-89
2023/07/07 09:55:17;;;;;;;4.82;2.20;;;24.90;93.60;;;;;;6335518;22;20442;-89
2023/07/07 09:57:56;;;;;;;4.90;2.15;;;24.90;94.70;;;;;;6308277;22;20037;-89
2023/07/07 10:00:24;;;;;;;5.88;1.88;;;25.00;93.90;;;;;;6281820;22;20349;-91
2023/07/07 10:03:25;;;;;;;4.72;2.13;;;25.00;94.40;;;;;;6308492;22;20042;-92
2023/07/07 10:05:53;;;;;;;6.55;2.33;;;25.10;93.80;;;;;;6309232;22;20011;-91
2023/07/07 10:08:19;;;;;;;7.95;2.38;;;25.20;93.70;;;;;;6282108;22;20018;-92
2023/07/07 10:10:49;;;;;;;5.32;1.98;;;25.30;93.20;;;;;;6308221;22;20015;-92
2023/07/07 10:13:15;;;;;;;6.85;2.10;;;25.30;93.40;;;;;;6282871;22;20012;-92
2023/07/07 10:15:55;;;;;;;4.18;1.98;;;25.30;93.70;;;;;;6338187;22;20015;-94
2023/07/07 10:18:25;;;;;;;8.50;1.90;;;25.50;93.90;;;;;;6309583;22;20006;-89
2023/07/07 10:21:02;;;;;;;4.15;1.77;;;25.60;93.90;;;;;;6335480;22;20007;-91
2023/07/07 10:23:31;;;;;;;5.90;2.03;;;25.60;91.90;;;;;;6309136;22;20015;-92
2023/07/07 10:25:57;;;;;;;5.32;1.90;;;25.50;92.50;;;;;;6335502;22;20430;-92
2023/07/07 10:28:24;;;;;;;5.72;2.08;;;25.50;93.20;;;;;;6306882;22;20127;-91
2023/07/07 10:30:51;;;;;;;5.90;2.25;;;25.60;93.10;;;;;;6335105;22;20442;-91
2023/07/07 10:33:21;;;;;;;6.95;2.22;;;25.60;93.10;;;;;;6336061;22;20459;-92
2023/07/07 10:35:47;;;;;;;4.43;1.98;;;25.60;92.80;;;;;;6335475;22;20052;-91
2023/07/07 10:38:13;;;;;;;5.82;2.33;;;25.70;92.90;;;;;;6306449;22;20022;-92
2023/07/07 10:40:41;;;;;;;5.97;1.70;;;25.80;92.70;;;;;;6334149;22;20015;-93
2023/07/07 10:43:12;;;;;;;5.82;2.15;;;25.80;92.10;;;;;;6281519;22;20015;-91
2023/07/07 10:45:37;;;;;;;5.20;1.88;;;25.80;91.70;;;;;;6308625;22;20497;-92
2023/07/07 10:48:10;;;;;;;4.32;2.22;;;25.80;91.70;;;;;;6307426;22;20015;-92
2023/07/07 10:50:46;;;;;;;5.65;2.13;;;25.90;91.60;;;;;;6307566;22;20442;-91
2023/07/07 10:53:23;;;;;;;5.45;2.10;;;25.90;92.00;;;;;;6306660;22;20019;-91
2023/07/07 10:56:13;;;;;;;5.03;2.05;;;25.90;92.60;;;;;;6308144;22;20022;-92
2023/07/07 10:59:15;;;;;;;5.05;1.90;;;25.90;91.70;;;;;;6337415;22;20015;-93
2023/07/07 11:01:41;;;;;;;4.90;1.95;;;25.80;91.80;;;;;;6310903;22;20014;-91
2023/07/07 11:04:25;;;;;;;6.93;2.35;;;25.70;93.20;;;;;;6337086;22;20089;-92
2023/07/07 11:06:59;;;;;;;;;;;25.70;93.50;;;;;;6284363;22;20018;-93
2023/07/07 11:10:07;;;;;;;6.75;2.17;;;25.70;93.50;;;;;;6309000;22;19972;-92
2023/07/07 11:13:34;;;;;;;5.93;2.22;;;26.00;92.70;;;;;;6131113;23;20117;-92
2023/07/07 11:16:25;;;;;;;5.50;2.15;;;26.20;92.70;;;;;;6125468;23;20017;-92
2023/07/07 11:19:10;;;;;;;5.20;1.88;;;26.30;92.30;;;;;;6155068;23;20017;-93
2023/07/07 11:21:55;;;;;;;6.53;2.10;;;26.40;93.40;;;;;;6131826;23;20017;-94
2023/07/07 11:24:48;;;;;;;9.13;2.25;;;26.40;92.60;;;;;;6181411;23;20068;-92
2023/07/07 11:27:41;;;;;;;3.92;2.00;;;26.50;91.70;;;;;;6179154;23;20013;-92
2023/07/07 11:30:15;;;;;;;6.38;2.47;;;26.60;91.90;;;;;;6156155;23;20092;-93
2023/07/07 11:33:19;;;;;;;6.00;2.22;;;26.70;91.90;;;;;;6156181;23;20024;-93
2023/07/07 11:35:53;;;;;;;4.50;2.30;;;26.80;91.60;;;;;;6063892;23;20135;-93
2023/07/07 11:38:24;;;;;;;;;;;26.80;89.90;;;;;;6065644;23;20037;-92
2023/07/07 11:41:32;;;;;;;5.00;1.85;;;26.90;91.20;;;;;;6039775;23;19972;-92
2023/07/07 11:44:25;;;;;;;8.02;2.55;;;26.90;91.70;;;;;;6088336;23;20019;-90
2023/07/07 11:47:17;;;;;;;5.47;2.05;;;27.00;91.40;;;;;;6042346;23;20331;-92
2023/07/07 11:50:21;;;;;;;4.78;2.10;;;27.00;91.20;;;;;;6180785;23;20021;-91
2023/07/07 11:53:23;;;;;;;6.00;2.33;;;27.00;90.60;;;;;;6148421;23;20480;-91
2023/07/07 11:56:10;;;;;;;5.55;2.05;;;27.10;91.30;;;;;;6126079;23;20025;-91
2023/07/07 11:58:59;;;;;;;3.80;1.80;;;27.20;90.30;;;;;;6101552;23;20073;-92
2023/07/07 12:01:37;;;;;;;5.32;2.00;;;27.20;90.40;;;;;;6126725;23;20020;-92
2023/07/07 12:04:25;;;;;;;4.70;2.22;;;27.30;88.20;;;;;;6124585;23;20412;-93
2023/07/07 12:06:57;;;;;;;5.13;2.40;;;27.30;89.60;;;;;;6127881;23;20017;-92
2023/07/07 12:09:29;;;;;;;6.82;1.80;;;27.40;88.90;;;;;;6162158;23;20017;-96
2023/07/07 12:12:36;;;;;;;5.20;2.28;;;27.40;89.80;;;;;;6230699;22;20042;-96
2023/07/07 12:15:32;;;;;;;5.78;1.90;;;27.30;87.20;;;;;;6299295;22;20021;-96
2023/07/07 12:18:20;;;;;;;6.10;2.10;;;27.30;85.30;;;;;;6348751;22;20019;-96
2023/07/07 12:31:19;;;;;;;5.38;1.90;;;27.40;87.30;;;;;;6338685;22;20294;-96
2023/07/07 12:33:44;;;;;;;5.78;2.10;;;27.70;86.30;;;;;;6311997;22;20018;-92
2023/07/07 12:36:14;;;;;;;5.95;2.10;;;27.50;86.70;;;;;;6282158;22;20015;-87
2023/07/07 12:38:41;;;;;;;4.45;1.92;;;27.50;86.60;;;;;;6305739;22;20011;-87
2023/07/07 12:41:27;;;;;;;4.30;1.92;;;27.60;85.30;;;;;;6307821;22;20018;-87
2023/07/07 12:44:03;;;;;;;5.97;2.50;;;27.60;86.20;;;;;;6307602;22;20072;-87
2023/07/07 12:46:34;;;;;;;5.15;2.45;;;27.70;84.70;;;;;;6334670;22;20461;-87
2023/07/07 12:49:07;;;;;;;6.05;2.25;;;27.70;85.90;;;;;;6281315;22;20036;-87
2023/07/07 12:51:37;;;;;;;3.63;2.05;;;27.70;85.80;;;;;;6307820;22;20071;-87
2023/07/07 12:54:03;;;;;;;6.60;2.30;;;27.70;85.40;;;;;;6282630;22;20031;-87
2023/07/07 12:56:30;;;;;;;3.90;1.95;;;27.70;86.20;;;;;;6306600;22;20007;-87
2023/07/07 12:59:01;;;;;;;5.25;2.35;;;27.70;86.50;;;;;;6281319;22;20037;-87
2023/07/07 13:01:42;;;;;;;5.25;2.03;;;27.80;85.70;;;;;;6281425;22;20689;-88
2023/07/07 13:04:32;;;;;;;7.13;2.45;;;27.80;83.60;;;;;;6280736;22;20101;-88
2023/07/07 13:06:57;;;;;;;4.55;2.05;;;27.90;84.20;;;;;;6279637;22;20445;-87
2023/07/07 13:09:26;;;;;;;4.72;2.15;;;28.00;80.30;;;;;;6306751;22;20041;-88
2023/07/07 13:11:59;;;;;;;4.43;1.88;;;28.00;82.00;;;;;;6307519;22;20080;-88
2023/07/07 13:14:40;;;;;;;4.82;2.00;;;28.20;81.20;;;;;;6307710;22;20089;-88
2023/07/07 13:17:17;;;;;;;4.47;2.20;;;28.20;82.70;;;;;;6307033;22;20007;-89